sensor_id;sensor_type;location;lat;lon;timestamp;P1;durP1;ratioP1;P2;durP2;ratioP2
17753;SDS011;8999;48.994;9.150;2023-03-01T00:01:18;26.87;;;15.20;;
17753;SDS011;8999;48.994;9.150;2023-03-01T00:03:51;23.73;;;13.50;;
17753;SDS011;8999;48.994;9.150;2023-03-01T00:06:24;24.13;;;13.93;;
17753;SDS011;8999;48.994;9.150;2023-03-01T00:08:57;24.80;;;14.27;;
17753;SDS011;8999;48.994;9.150;2023-03-01T00:11:30;29.00;;;14.53;;
17753;SDS011;8999;48.994;9.150;2023-03-01T00:14:02;25.33;;;13.80;;
17753;SDS011;8999;48.994;9.150;2023-03-01T00:16:37;26.23;;;14.00;;
17753;SDS011;8999;48.994;9.150;2023-03-01T00:19:15;24.80;;;13.63;;
17753;SDS011;8999;48.994;9.150;2023-03-01T00:21:47;26.53;;;14.27;;
17753;SDS011;8999;48.994;9.150;2023-03-01T00:24:21;27.87;;;14.53;;
17753;SDS011;8999;48.994;9.150;2023-03-01T00:26:52;22.23;;;12.23;;
17753;SDS011;8999;48.994;9.150;2023-03-01T00:29:25;26.43;;;14.07;;
17753;SDS011;8999;48.994;9.150;2023-03-01T00:31:57;25.13;;;14.93;;
17753;SDS011;8999;48.994;9.150;2023-03-01T00:34:29;25.00;;;14.63;;
17753;SDS011;8999;48.994;9.150;2023-03-01T00:37:00;26.37;;;14.10;;
17753;SDS011;8999;48.994;9.150;2023-03-01T00:39:36;25.33;;;15.20;;
17753;SDS011;8999;48.994;9.150;2023-03-01T00:42:08;26.27;;;14.47;;
17753;SDS011;8999;48.994;9.150;2023-03-01T00:44:39;26.33;;;14.27;;
17753;SDS011;8999;48.994;9.150;2023-03-01T00:47:11;24.47;;;12.90;;
17753;SDS011;8999;48.994;9.150;2023-03-01T00:49:43;23.80;;;12.47;;
17753;SDS011;8999;48.994;9.150;2023-03-01T00:52:15;24.17;;;12.77;;
17753;SDS011;8999;48.994;9.150;2023-03-01T00:54:48;28.43;;;13.20;;
17753;SDS011;8999;48.994;9.150;2023-03-01T00:57:20;23.57;;;12.73;;
17753;SDS011;8999;48.994;9.150;2023-03-01T00:59:51;23.70;;;13.07;;
17753;SDS011;8999;48.994;9.150;2023-03-01T01:02:23;23.57;;;13.87;;
17753;SDS011;8999;48.994;9.150;2023-03-01T01:04:55;27.70;;;14.60;;
17753;SDS011;8999;48.994;9.150;2023-03-01T01:07:26;24.70;;;14.23;;
17753;SDS011;8999;48.994;9.150;2023-03-01T01:09:59;23.27;;;13.37;;
17753;SDS011;8999;48.994;9.150;2023-03-01T01:12:31;25.83;;;13.67;;
17753;SDS011;8999;48.994;9.150;2023-03-01T01:15:03;29.10;;;14.70;;
17753;SDS011;8999;48.994;9.150;2023-03-01T01:17:35;23.47;;;13.53;;
17753;SDS011;8999;48.994;9.150;2023-03-01T01:20:07;22.93;;;12.30;;
17753;SDS011;8999;48.994;9.150;2023-03-01T01:22:40;25.30;;;13.63;;
17753;SDS011;8999;48.994;9.150;2023-03-01T01:25:13;23.33;;;13.97;;
17753;SDS011;8999;48.994;9.150;2023-03-01T01:27:45;23.20;;;13.50;;
17753;SDS011;8999;48.994;9.150;2023-03-01T01:30:16;26.03;;;14.23;;
17753;SDS011;8999;48.994;9.150;2023-03-01T01:32:48;24.57;;;13.97;;
17753;SDS011;8999;48.994;9.150;2023-03-01T01:35:20;23.47;;;13.33;;
17753;SDS011;8999;48.994;9.150;2023-03-01T01:37:52;25.00;;;14.00;;
17753;SDS011;8999;48.994;9.150;2023-03-01T01:40:25;22.57;;;13.07;;
17753;SDS011;8999;48.994;9.150;2023-03-01T01:42:56;23.67;;;13.57;;
17753;SDS011;8999;48.994;9.150;2023-03-01T01:45:30;24.70;;;13.63;;
17753;SDS011;8999;48.994;9.150;2023-03-01T01:48:04;26.57;;;14.10;;
17753;SDS011;8999;48.994;9.150;2023-03-01T01:50:38;23.57;;;13.37;;
17753;SDS011;8999;48.994;9.150;2023-03-01T01:53:12;25.33;;;14.03;;
17753;SDS011;8999;48.994;9.150;2023-03-01T01:55:49;26.00;;;12.87;;
17753;SDS011;8999;48.994;9.150;2023-03-01T01:58:23;24.80;;;13.33;;
17753;SDS011;8999;48.994;9.150;2023-03-01T02:00:55;20.63;;;11.90;;
17753;SDS011;8999;48.994;9.150;2023-03-01T02:03:27;24.67;;;12.60;;
17753;SDS011;8999;48.994;9.150;2023-03-01T02:06:03;25.30;;;13.87;;
17753;SDS011;8999;48.994;9.150;2023-03-01T02:08:37;24.23;;;14.23;;
17753;SDS011;8999;48.994;9.150;2023-03-01T02:11:11;25.07;;;14.67;;
17753;SDS011;8999;48.994;9.150;2023-03-01T02:13:44;25.67;;;13.77;;
17753;SDS011;8999;48.994;9.150;2023-03-01T02:16:18;23.03;;;14.37;;
17753;SDS011;8999;48.994;9.150;2023-03-01T02:18:50;23.20;;;14.00;;
17753;SDS011;8999;48.994;9.150;2023-03-01T02:21:31;23.07;;;13.37;;
17753;SDS011;8999;48.994;9.150;2023-03-01T02:24:10;22.77;;;12.93;;
17753;SDS011;8999;48.994;9.150;2023-03-01T02:26:50;28.63;;;13.13;;
17753;SDS011;8999;48.994;9.150;2023-03-01T02:29:24;25.00;;;13.30;;
17753;SDS011;8999;48.994;9.150;2023-03-01T02:31:58;24.50;;;12.67;;
17753;SDS011;8999;48.994;9.150;2023-03-01T02:34:31;27.50;;;14.27;;
17753;SDS011;8999;48.994;9.150;2023-03-01T02:37:04;24.43;;;14.10;;
17753;SDS011;8999;48.994;9.150;2023-03-01T02:39:39;27.10;;;13.60;;
17753;SDS011;8999;48.994;9.150;2023-03-01T02:42:13;23.30;;;13.50;;
17753;SDS011;8999;48.994;9.150;2023-03-01T02:44:49;23.07;;;13.10;;
17753;SDS011;8999;48.994;9.150;2023-03-01T02:47:21;26.10;;;13.30;;
17753;SDS011;8999;48.994;9.150;2023-03-01T02:49:53;26.30;;;14.47;;
17753;SDS011;8999;48.994;9.150;2023-03-01T02:52:32;24.93;;;13.73;;
17753;SDS011;8999;48.994;9.150;2023-03-01T02:55:08;23.40;;;13.90;;
17753;SDS011;8999;48.994;9.150;2023-03-01T02:57:41;25.07;;;12.80;;
17753;SDS011;8999;48.994;9.150;2023-03-01T03:00:17;32.57;;;13.80;;
17753;SDS011;8999;48.994;9.150;2023-03-01T03:02:50;24.60;;;13.30;;
17753;SDS011;8999;48.994;9.150;2023-03-01T03:05:24;24.47;;;13.83;;
17753;SDS011;8999;48.994;9.150;2023-03-01T03:07:57;23.10;;;12.50;;
17753;SDS011;8999;48.994;9.150;2023-03-01T03:10:30;26.60;;;14.70;;
17753;SDS011;8999;48.994;9.150;2023-03-01T03:13:05;23.83;;;13.23;;
17753;SDS011;8999;48.994;9.150;2023-03-01T03:15:40;24.87;;;13.97;;
17753;SDS011;8999;48.994;9.150;2023-03-01T03:18:13;23.10;;;13.97;;
17753;SDS011;8999;48.994;9.150;2023-03-01T03:20:46;25.23;;;14.60;;
17753;SDS011;8999;48.994;9.150;2023-03-01T03:23:18;26.53;;;14.80;;
17753;SDS011;8999;48.994;9.150;2023-03-01T03:25:52;25.60;;;14.77;;
17753;SDS011;8999;48.994;9.150;2023-03-01T03:28:24;26.20;;;14.27;;
17753;SDS011;8999;48.994;9.150;2023-03-01T03:30:57;24.33;;;13.70;;
17753;SDS011;8999;48.994;9.150;2023-03-01T03:33:33;25.23;;;14.17;;
17753;SDS011;8999;48.994;9.150;2023-03-01T03:36:05;23.17;;;14.03;;
17753;SDS011;8999;48.994;9.150;2023-03-01T03:38:43;25.37;;;13.43;;
17753;SDS011;8999;48.994;9.150;2023-03-01T03:41:15;26.80;;;13.13;;
17753;SDS011;8999;48.994;9.150;2023-03-01T03:43:47;24.57;;;13.87;;
17753;SDS011;8999;48.994;9.150;2023-03-01T03:46:20;24.07;;;13.57;;
17753;SDS011;8999;48.994;9.150;2023-03-01T03:48:52;24.30;;;13.57;;
17753;SDS011;8999;48.994;9.150;2023-03-01T03:51:23;25.90;;;14.17;;
17753;SDS011;8999;48.994;9.150;2023-03-01T03:53:55;24.90;;;13.60;;
17753;SDS011;8999;48.994;9.150;2023-03-01T03:56:27;25.67;;;14.90;;
17753;SDS011;8999;48.994;9.150;2023-03-01T03:58:58;25.27;;;13.70;;
17753;SDS011;8999;48.994;9.150;2023-03-01T04:01:31;23.63;;;12.93;;
17753;SDS011;8999;48.994;9.150;2023-03-01T04:04:03;27.37;;;14.83;;
17753;SDS011;8999;48.994;9.150;2023-03-01T04:06:37;25.57;;;15.03;;
17753;SDS011;8999;48.994;9.150;2023-03-01T04:09:09;26.97;;;16.10;;
17753;SDS011;8999;48.994;9.150;2023-03-01T04:11:41;30.80;;;16.70;;
17753;SDS011;8999;48.994;9.150;2023-03-01T04:14:12;27.63;;;15.00;;
17753;SDS011;8999;48.994;9.150;2023-03-01T04:16:45;28.83;;;15.53;;
17753;SDS011;8999;48.994;9.150;2023-03-01T04:19:17;24.67;;;14.80;;
17753;SDS011;8999;48.994;9.150;2023-03-01T04:21:49;27.77;;;15.67;;
17753;SDS011;8999;48.994;9.150;2023-03-01T04:24:20;28.53;;;16.63;;
17753;SDS011;8999;48.994;9.150;2023-03-01T04:26:52;24.47;;;14.73;;
17753;SDS011;8999;48.994;9.150;2023-03-01T04:29:24;25.10;;;15.27;;
17753;SDS011;8999;48.994;9.150;2023-03-01T04:31:57;28.37;;;16.93;;
17753;SDS011;8999;48.994;9.150;2023-03-01T04:34:29;29.73;;;16.83;;
17753;SDS011;8999;48.994;9.150;2023-03-01T04:37:00;27.63;;;16.60;;
17753;SDS011;8999;48.994;9.150;2023-03-01T04:39:32;26.47;;;15.73;;
17753;SDS011;8999;48.994;9.150;2023-03-01T04:42:04;28.13;;;16.37;;
17753;SDS011;8999;48.994;9.150;2023-03-01T04:44:35;26.90;;;15.40;;
17753;SDS011;8999;48.994;9.150;2023-03-01T04:47:08;25.73;;;16.03;;
17753;SDS011;8999;48.994;9.150;2023-03-01T04:49:40;31.43;;;17.80;;
17753;SDS011;8999;48.994;9.150;2023-03-01T04:52:11;29.30;;;17.03;;
17753;SDS011;8999;48.994;9.150;2023-03-01T04:54:43;27.07;;;15.97;;
17753;SDS011;8999;48.994;9.150;2023-03-01T04:57:15;29.17;;;16.27;;
17753;SDS011;8999;48.994;9.150;2023-03-01T04:59:46;29.50;;;16.33;;
17753;SDS011;8999;48.994;9.150;2023-03-01T05:02:19;30.27;;;16.37;;
17753;SDS011;8999;48.994;9.150;2023-03-01T05:04:51;29.57;;;15.97;;
17753;SDS011;8999;48.994;9.150;2023-03-01T05:07:27;25.87;;;16.20;;
17753;SDS011;8999;48.994;9.150;2023-03-01T05:09:59;25.87;;;15.93;;
17753;SDS011;8999;48.994;9.150;2023-03-01T05:12:30;30.67;;;16.43;;
17753;SDS011;8999;48.994;9.150;2023-03-01T05:15:02;34.73;;;18.77;;
17753;SDS011;8999;48.994;9.150;2023-03-01T05:17:38;32.57;;;17.50;;
17753;SDS011;8999;48.994;9.150;2023-03-01T05:20:10;29.60;;;16.97;;
17753;SDS011;8999;48.994;9.150;2023-03-01T05:22:42;29.80;;;17.50;;
17753;SDS011;8999;48.994;9.150;2023-03-01T05:25:14;34.10;;;18.80;;
17753;SDS011;8999;48.994;9.150;2023-03-01T05:27:45;29.67;;;16.83;;
17753;SDS011;8999;48.994;9.150;2023-03-01T05:30:17;29.40;;;17.60;;
17753;SDS011;8999;48.994;9.150;2023-03-01T05:32:50;29.13;;;16.73;;
17753;SDS011;8999;48.994;9.150;2023-03-01T05:35:25;30.37;;;16.70;;
17753;SDS011;8999;48.994;9.150;2023-03-01T05:37:57;32.53;;;18.03;;
17753;SDS011;8999;48.994;9.150;2023-03-01T05:40:29;29.73;;;17.33;;
17753;SDS011;8999;48.994;9.150;2023-03-01T05:43:01;32.10;;;17.47;;
17753;SDS011;8999;48.994;9.150;2023-03-01T05:45:35;29.00;;;17.30;;
17753;SDS011;8999;48.994;9.150;2023-03-01T05:48:09;31.70;;;17.93;;
17753;SDS011;8999;48.994;9.150;2023-03-01T05:50:42;30.37;;;17.50;;
17753;SDS011;8999;48.994;9.150;2023-03-01T05:53:15;30.17;;;17.70;;
17753;SDS011;8999;48.994;9.150;2023-03-01T05:55:48;31.43;;;18.30;;
17753;SDS011;8999;48.994;9.150;2023-03-01T05:58:21;29.83;;;17.70;;
17753;SDS011;8999;48.994;9.150;2023-03-01T06:00:53;32.37;;;18.03;;
17753;SDS011;8999;48.994;9.150;2023-03-01T06:03:26;33.23;;;18.47;;
17753;SDS011;8999;48.994;9.150;2023-03-01T06:05:58;32.90;;;18.77;;
17753;SDS011;8999;48.994;9.150;2023-03-01T06:08:29;35.30;;;18.70;;
17753;SDS011;8999;48.994;9.150;2023-03-01T06:11:01;43.07;;;22.87;;
17753;SDS011;8999;48.994;9.150;2023-03-01T06:13:33;36.10;;;20.37;;
17753;SDS011;8999;48.994;9.150;2023-03-01T06:16:05;33.20;;;18.83;;
17753;SDS011;8999;48.994;9.150;2023-03-01T06:18:38;36.40;;;18.70;;
17753;SDS011;8999;48.994;9.150;2023-03-01T06:21:10;31.03;;;17.37;;
17753;SDS011;8999;48.994;9.150;2023-03-01T06:23:42;31.67;;;17.80;;
17753;SDS011;8999;48.994;9.150;2023-03-01T06:26:14;33.93;;;17.03;;
17753;SDS011;8999;48.994;9.150;2023-03-01T06:28:45;28.97;;;17.57;;
17753;SDS011;8999;48.994;9.150;2023-03-01T06:31:17;29.60;;;17.43;;
17753;SDS011;8999;48.994;9.150;2023-03-01T06:33:50;32.83;;;17.80;;
17753;SDS011;8999;48.994;9.150;2023-03-01T06:36:21;30.57;;;16.93;;
17753;SDS011;8999;48.994;9.150;2023-03-01T06:38:53;33.40;;;17.83;;
17753;SDS011;8999;48.994;9.150;2023-03-01T06:41:25;34.10;;;18.07;;
17753;SDS011;8999;48.994;9.150;2023-03-01T06:43:56;32.30;;;17.87;;
17753;SDS011;8999;48.994;9.150;2023-03-01T06:46:28;32.50;;;18.13;;
17753;SDS011;8999;48.994;9.150;2023-03-01T06:49:02;28.87;;;17.03;;
17753;SDS011;8999;48.994;9.150;2023-03-01T06:51:34;32.57;;;17.53;;
17753;SDS011;8999;48.994;9.150;2023-03-01T06:54:07;31.97;;;18.07;;
17753;SDS011;8999;48.994;9.150;2023-03-01T06:56:39;29.07;;;17.90;;
17753;SDS011;8999;48.994;9.150;2023-03-01T06:59:11;34.30;;;18.33;;
17753;SDS011;8999;48.994;9.150;2023-03-01T07:01:43;30.40;;;17.40;;
17753;SDS011;8999;48.994;9.150;2023-03-01T07:04:16;31.37;;;18.43;;
17753;SDS011;8999;48.994;9.150;2023-03-01T07:06:47;34.83;;;17.97;;
17753;SDS011;8999;48.994;9.150;2023-03-01T07:09:25;34.13;;;19.80;;
17753;SDS011;8999;48.994;9.150;2023-03-01T07:11:56;36.07;;;19.83;;
17753;SDS011;8999;48.994;9.150;2023-03-01T07:14:28;27.83;;;16.90;;
17753;SDS011;8999;48.994;9.150;2023-03-01T07:17:00;27.03;;;16.90;;
17753;SDS011;8999;48.994;9.150;2023-03-01T07:19:33;30.87;;;17.70;;
17753;SDS011;8999;48.994;9.150;2023-03-01T07:22:04;32.10;;;18.33;;
17753;SDS011;8999;48.994;9.150;2023-03-01T07:24:37;30.20;;;17.97;;
17753;SDS011;8999;48.994;9.150;2023-03-01T07:27:09;29.40;;;17.27;;
17753;SDS011;8999;48.994;9.150;2023-03-01T07:29:41;32.90;;;18.27;;
17753;SDS011;8999;48.994;9.150;2023-03-01T07:32:13;29.90;;;17.57;;
17753;SDS011;8999;48.994;9.150;2023-03-01T07:34:46;33.77;;;18.13;;
17753;SDS011;8999;48.994;9.150;2023-03-01T07:37:17;30.50;;;18.17;;
17753;SDS011;8999;48.994;9.150;2023-03-01T07:39:49;31.63;;;17.23;;
17753;SDS011;8999;48.994;9.150;2023-03-01T07:42:20;30.50;;;17.93;;
17753;SDS011;8999;48.994;9.150;2023-03-01T07:44:52;32.57;;;18.70;;
17753;SDS011;8999;48.994;9.150;2023-03-01T07:47:24;28.90;;;16.73;;
17753;SDS011;8999;48.994;9.150;2023-03-01T07:49:57;28.30;;;17.33;;
17753;SDS011;8999;48.994;9.150;2023-03-01T07:52:29;33.93;;;17.27;;
17753;SDS011;8999;48.994;9.150;2023-03-01T07:55:01;30.50;;;17.73;;
17753;SDS011;8999;48.994;9.150;2023-03-01T07:57:33;31.23;;;17.27;;
17753;SDS011;8999;48.994;9.150;2023-03-01T08:00:06;31.47;;;17.17;;
17753;SDS011;8999;48.994;9.150;2023-03-01T08:02:38;31.07;;;17.60;;
17753;SDS011;8999;48.994;9.150;2023-03-01T08:05:13;30.93;;;17.73;;
17753;SDS011;8999;48.994;9.150;2023-03-01T08:07:45;28.47;;;17.40;;
17753;SDS011;8999;48.994;9.150;2023-03-01T08:10:16;28.47;;;16.70;;
17753;SDS011;8999;48.994;9.150;2023-03-01T08:12:50;32.97;;;18.17;;
17753;SDS011;8999;48.994;9.150;2023-03-01T08:15:22;29.77;;;16.90;;
17753;SDS011;8999;48.994;9.150;2023-03-01T08:17:54;27.40;;;14.93;;
17753;SDS011;8999;48.994;9.150;2023-03-01T08:20:27;27.40;;;14.73;;
17753;SDS011;8999;48.994;9.150;2023-03-01T08:22:58;26.80;;;14.73;;
17753;SDS011;8999;48.994;9.150;2023-03-01T08:25:30;25.77;;;13.37;;
17753;SDS011;8999;48.994;9.150;2023-03-01T08:28:02;26.40;;;15.30;;
17753;SDS011;8999;48.994;9.150;2023-03-01T08:30:34;31.83;;;16.33;;
17753;SDS011;8999;48.994;9.150;2023-03-01T08:33:06;30.67;;;16.50;;
17753;SDS011;8999;48.994;9.150;2023-03-01T08:35:39;28.77;;;15.50;;
17753;SDS011;8999;48.994;9.150;2023-03-01T08:38:10;28.00;;;17.20;;
17753;SDS011;8999;48.994;9.150;2023-03-01T08:40:42;24.65;;;15.73;;
17753;SDS011;8999;48.994;9.150;2023-03-01T08:43:13;26.95;;;17.02;;
17753;SDS011;8999;48.994;9.150;2023-03-01T08:45:47;26.80;;;15.40;;
17753;SDS011;8999;48.994;9.150;2023-03-01T08:48:19;26.90;;;15.40;;
17753;SDS011;8999;48.994;9.150;2023-03-01T08:50:52;27.30;;;15.32;;
17753;SDS011;8999;48.994;9.150;2023-03-01T08:53:24;26.00;;;16.17;;
17753;SDS011;8999;48.994;9.150;2023-03-01T08:55:55;23.75;;;15.48;;
17753;SDS011;8999;48.994;9.150;2023-03-01T08:58:31;24.30;;;15.45;;
17753;SDS011;8999;48.994;9.150;2023-03-01T09:01:06;25.77;;;16.60;;
17753;SDS011;8999;48.994;9.150;2023-03-01T09:03:38;23.25;;;15.13;;
17753;SDS011;8999;48.994;9.150;2023-03-01T09:06:11;22.13;;;15.35;;
17753;SDS011;8999;48.994;9.150;2023-03-01T09:08:44;26.25;;;16.77;;
17753;SDS011;8999;48.994;9.150;2023-03-01T09:11:18;24.10;;;16.42;;
17753;SDS011;8999;48.994;9.150;2023-03-01T09:13:51;22.67;;;15.38;;
17753;SDS011;8999;48.994;9.150;2023-03-01T09:16:23;24.67;;;15.82;;
17753;SDS011;8999;48.994;9.150;2023-03-01T09:18:54;22.13;;;15.48;;
17753;SDS011;8999;48.994;9.150;2023-03-01T09:21:27;25.75;;;15.55;;
17753;SDS011;8999;48.994;9.150;2023-03-01T09:23:59;27.83;;;15.90;;
17753;SDS011;8999;48.994;9.150;2023-03-01T09:26:31;25.15;;;15.20;;
17753;SDS011;8999;48.994;9.150;2023-03-01T09:29:03;29.88;;;15.55;;
17753;SDS011;8999;48.994;9.150;2023-03-01T09:34:07;26.42;;;16.33;;
17753;SDS011;8999;48.994;9.150;2023-03-01T09:36:41;25.92;;;16.00;;
17753;SDS011;8999;48.994;9.150;2023-03-01T09:39:13;23.02;;;15.23;;
17753;SDS011;8999;48.994;9.150;2023-03-01T09:41:46;23.42;;;15.40;;
17753;SDS011;8999;48.994;9.150;2023-03-01T09:44:26;27.08;;;16.02;;
17753;SDS011;8999;48.994;9.150;2023-03-01T09:47:01;25.27;;;16.70;;
17753;SDS011;8999;48.994;9.150;2023-03-01T09:49:34;25.40;;;15.75;;
17753;SDS011;8999;48.994;9.150;2023-03-01T09:52:11;26.83;;;16.55;;
17753;SDS011;8999;48.994;9.150;2023-03-01T09:54:52;25.50;;;15.50;;
17753;SDS011;8999;48.994;9.150;2023-03-01T09:57:26;25.60;;;14.88;;
17753;SDS011;8999;48.994;9.150;2023-03-01T10:00:04;26.27;;;16.25;;
17753;SDS011;8999;48.994;9.150;2023-03-01T10:02:42;27.08;;;15.98;;
17753;SDS011;8999;48.994;9.150;2023-03-01T10:05:26;25.42;;;15.77;;
17753;SDS011;8999;48.994;9.150;2023-03-01T10:08:18;25.77;;;15.95;;
17753;SDS011;8999;48.994;9.150;2023-03-01T10:10:59;24.88;;;15.15;;
17753;SDS011;8999;48.994;9.150;2023-03-01T10:13:33;24.65;;;15.35;;
17753;SDS011;8999;48.994;9.150;2023-03-01T10:16:10;23.75;;;15.40;;
17753;SDS011;8999;48.994;9.150;2023-03-01T10:18:45;25.33;;;15.80;;
17753;SDS011;8999;48.994;9.150;2023-03-01T10:21:18;21.65;;;14.98;;
17753;SDS011;8999;48.994;9.150;2023-03-01T10:23:52;27.23;;;15.35;;
17753;SDS011;8999;48.994;9.150;2023-03-01T10:26:32;22.75;;;14.82;;
17753;SDS011;8999;48.994;9.150;2023-03-01T10:29:11;20.10;;;14.82;;
17753;SDS011;8999;48.994;9.150;2023-03-01T10:31:43;22.55;;;15.35;;
17753;SDS011;8999;48.994;9.150;2023-03-01T10:34:17;21.60;;;15.40;;
17753;SDS011;8999;48.994;9.150;2023-03-01T10:36:50;23.88;;;16.17;;
17753;SDS011;8999;48.994;9.150;2023-03-01T10:39:25;21.77;;;14.95;;
17753;SDS011;8999;48.994;9.150;2023-03-01T10:41:58;21.65;;;15.35;;
17753;SDS011;8999;48.994;9.150;2023-03-01T10:44:35;21.60;;;14.57;;
17753;SDS011;8999;48.994;9.150;2023-03-01T10:47:13;23.02;;;15.20;;
17753;SDS011;8999;48.994;9.150;2023-03-01T10:52:37;22.30;;;16.23;;
17753;SDS011;8999;48.994;9.150;2023-03-01T10:55:23;22.60;;;15.20;;
17753;SDS011;8999;48.994;9.150;2023-03-01T10:58:06;25.30;;;15.75;;
17753;SDS011;8999;48.994;9.150;2023-03-01T11:00:45;19.77;;;15.07;;
17753;SDS011;8999;48.994;9.150;2023-03-01T11:03:19;19.73;;;14.90;;
17753;SDS011;8999;48.994;9.150;2023-03-01T11:05:57;19.38;;;14.82;;
17753;SDS011;8999;48.994;9.150;2023-03-01T11:08:37;20.80;;;15.13;;
17753;SDS011;8999;48.994;9.150;2023-03-01T11:11:25;19.80;;;13.80;;
17753;SDS011;8999;48.994;9.150;2023-03-01T11:14:03;22.35;;;14.82;;
17753;SDS011;8999;48.994;9.150;2023-03-01T11:16:39;20.10;;;14.23;;
17753;SDS011;8999;48.994;9.150;2023-03-01T11:19:14;19.65;;;14.32;;
17753;SDS011;8999;48.994;9.150;2023-03-01T11:21:55;23.35;;;15.80;;
17753;SDS011;8999;48.994;9.150;2023-03-01T11:24:31;25.70;;;15.63;;
17753;SDS011;8999;48.994;9.150;2023-03-01T11:27:11;19.70;;;14.68;;
17753;SDS011;8999;48.994;9.150;2023-03-01T11:29:48;21.30;;;15.35;;
17753;SDS011;8999;48.994;9.150;2023-03-01T11:32:23;21.55;;;13.90;;
17753;SDS011;8999;48.994;9.150;2023-03-01T11:34:57;23.55;;;15.32;;
17753;SDS011;8999;48.994;9.150;2023-03-01T11:37:34;20.90;;;14.43;;
17753;SDS011;8999;48.994;9.150;2023-03-01T11:40:11;23.95;;;14.90;;
17753;SDS011;8999;48.994;9.150;2023-03-01T11:42:52;20.25;;;13.23;;
17753;SDS011;8999;48.994;9.150;2023-03-01T11:45:30;23.63;;;15.18;;
17753;SDS011;8999;48.994;9.150;2023-03-01T11:48:07;20.55;;;14.10;;
17753;SDS011;8999;48.994;9.150;2023-03-01T11:50:48;23.60;;;14.77;;
17753;SDS011;8999;48.994;9.150;2023-03-01T11:53:29;23.02;;;14.82;;
17753;SDS011;8999;48.994;9.150;2023-03-01T11:56:12;26.63;;;15.85;;
17753;SDS011;8999;48.994;9.150;2023-03-01T11:58:58;28.13;;;17.50;;
17753;SDS011;8999;48.994;9.150;2023-03-01T12:01:49;23.55;;;15.85;;
17753;SDS011;8999;48.994;9.150;2023-03-01T12:07:24;24.95;;;15.82;;
17753;SDS011;8999;48.994;9.150;2023-03-01T12:10:01;29.23;;;16.58;;
17753;SDS011;8999;48.994;9.150;2023-03-01T12:12:49;28.77;;;15.93;;
17753;SDS011;8999;48.994;9.150;2023-03-01T12:18:39;23.48;;;15.23;;
17753;SDS011;8999;48.994;9.150;2023-03-01T12:21:21;25.85;;;15.98;;
17753;SDS011;8999;48.994;9.150;2023-03-01T12:24:06;23.40;;;15.40;;
17753;SDS011;8999;48.994;9.150;2023-03-01T12:26:47;26.15;;;16.17;;
17753;SDS011;8999;48.994;9.150;2023-03-01T12:29:26;25.30;;;16.40;;
17753;SDS011;8999;48.994;9.150;2023-03-01T12:35:16;23.27;;;15.68;;
17753;SDS011;8999;48.994;9.150;2023-03-01T12:37:56;23.20;;;13.85;;
17753;SDS011;8999;48.994;9.150;2023-03-01T12:43:42;25.13;;;15.85;;
17753;SDS011;8999;48.994;9.150;2023-03-01T12:46:21;25.40;;;15.43;;
17753;SDS011;8999;48.994;9.150;2023-03-01T12:49:01;24.30;;;15.68;;
17753;SDS011;8999;48.994;9.150;2023-03-01T12:51:36;26.90;;;16.65;;
17753;SDS011;8999;48.994;9.150;2023-03-01T12:54:11;25.58;;;15.93;;
17753;SDS011;8999;48.994;9.150;2023-03-01T12:56:46;25.92;;;16.75;;
17753;SDS011;8999;48.994;9.150;2023-03-01T12:59:23;26.77;;;16.50;;
17753;SDS011;8999;48.994;9.150;2023-03-01T13:02:02;26.42;;;16.27;;
17753;SDS011;8999;48.994;9.150;2023-03-01T13:04:39;25.05;;;16.70;;
17753;SDS011;8999;48.994;9.150;2023-03-01T13:07:19;24.70;;;16.42;;
17753;SDS011;8999;48.994;9.150;2023-03-01T13:10:01;22.63;;;15.73;;
17753;SDS011;8999;48.994;9.150;2023-03-01T13:12:49;27.42;;;15.02;;
17753;SDS011;8999;48.994;9.150;2023-03-01T13:15:31;26.42;;;16.67;;
17753;SDS011;8999;48.994;9.150;2023-03-01T13:18:11;25.60;;;16.23;;
17753;SDS011;8999;48.994;9.150;2023-03-01T13:21:04;25.95;;;15.35;;
17753;SDS011;8999;48.994;9.150;2023-03-01T13:23:37;25.60;;;16.15;;
17753;SDS011;8999;48.994;9.150;2023-03-01T13:26:10;24.58;;;16.00;;
17753;SDS011;8999;48.994;9.150;2023-03-01T13:28:48;24.33;;;16.45;;
17753;SDS011;8999;48.994;9.150;2023-03-01T13:34:39;26.52;;;15.25;;
17753;SDS011;8999;48.994;9.150;2023-03-01T13:37:26;24.75;;;15.88;;
17753;SDS011;8999;48.994;9.150;2023-03-01T13:43:25;26.02;;;16.38;;
17753;SDS011;8999;48.994;9.150;2023-03-01T13:46:00;24.23;;;15.57;;
17753;SDS011;8999;48.994;9.150;2023-03-01T13:48:33;26.83;;;15.73;;
17753;SDS011;8999;48.994;9.150;2023-03-01T13:51:06;23.08;;;15.73;;
17753;SDS011;8999;48.994;9.150;2023-03-01T13:53:41;24.25;;;16.00;;
17753;SDS011;8999;48.994;9.150;2023-03-01T13:56:15;27.30;;;16.15;;
17753;SDS011;8999;48.994;9.150;2023-03-01T13:58:49;24.80;;;15.32;;
17753;SDS011;8999;48.994;9.150;2023-03-01T14:01:23;24.88;;;16.33;;
17753;SDS011;8999;48.994;9.150;2023-03-01T14:03:58;27.58;;;16.08;;
17753;SDS011;8999;48.994;9.150;2023-03-01T14:06:31;27.88;;;16.33;;
17753;SDS011;8999;48.994;9.150;2023-03-01T14:09:09;23.40;;;15.90;;
17753;SDS011;8999;48.994;9.150;2023-03-01T14:11:48;24.52;;;15.88;;
17753;SDS011;8999;48.994;9.150;2023-03-01T14:14:29;30.48;;;16.95;;
17753;SDS011;8999;48.994;9.150;2023-03-01T14:17:09;24.95;;;15.85;;
17753;SDS011;8999;48.994;9.150;2023-03-01T14:19:55;26.73;;;14.70;;
17753;SDS011;8999;48.994;9.150;2023-03-01T14:22:29;23.13;;;16.30;;
17753;SDS011;8999;48.994;9.150;2023-03-01T14:25:04;24.95;;;15.73;;
17753;SDS011;8999;48.994;9.150;2023-03-01T14:27:38;23.67;;;15.40;;
17753;SDS011;8999;48.994;9.150;2023-03-01T14:30:13;28.45;;;17.15;;
17753;SDS011;8999;48.994;9.150;2023-03-01T14:32:51;31.40;;;16.35;;
17753;SDS011;8999;48.994;9.150;2023-03-01T14:35:25;26.13;;;15.63;;
17753;SDS011;8999;48.994;9.150;2023-03-01T14:37:58;24.98;;;14.73;;
17753;SDS011;8999;48.994;9.150;2023-03-01T14:40:31;22.42;;;15.40;;
17753;SDS011;8999;48.994;9.150;2023-03-01T14:43:08;24.30;;;15.48;;
17753;SDS011;8999;48.994;9.150;2023-03-01T14:45:42;24.00;;;15.60;;
17753;SDS011;8999;48.994;9.150;2023-03-01T14:48:18;26.67;;;15.73;;
17753;SDS011;8999;48.994;9.150;2023-03-01T14:50:50;21.42;;;14.43;;
17753;SDS011;8999;48.994;9.150;2023-03-01T14:53:23;21.33;;;14.27;;
17753;SDS011;8999;48.994;9.150;2023-03-01T14:55:59;25.38;;;15.52;;
17753;SDS011;8999;48.994;9.150;2023-03-01T14:58:32;21.92;;;15.20;;
17753;SDS011;8999;48.994;9.150;2023-03-01T15:01:04;22.83;;;15.60;;
17753;SDS011;8999;48.994;9.150;2023-03-01T15:03:40;23.85;;;15.25;;
17753;SDS011;8999;48.994;9.150;2023-03-01T15:06:14;26.15;;;15.52;;
17753;SDS011;8999;48.994;9.150;2023-03-01T15:08:48;27.83;;;15.88;;
17753;SDS011;8999;48.994;9.150;2023-03-01T15:11:23;25.52;;;15.25;;
17753;SDS011;8999;48.994;9.150;2023-03-01T15:13:56;23.42;;;14.65;;
17753;SDS011;8999;48.994;9.150;2023-03-01T15:16:29;20.67;;;14.07;;
17753;SDS011;8999;48.994;9.150;2023-03-01T15:19:03;25.60;;;15.55;;
17753;SDS011;8999;48.994;9.150;2023-03-01T15:21:36;21.95;;;14.77;;
17753;SDS011;8999;48.994;9.150;2023-03-01T15:24:16;23.20;;;15.00;;
17753;SDS011;8999;48.994;9.150;2023-03-01T15:26:52;26.65;;;15.30;;
17753;SDS011;8999;48.994;9.150;2023-03-01T15:29:27;25.00;;;14.75;;
17753;SDS011;8999;48.994;9.150;2023-03-01T15:32:01;24.67;;;14.85;;
17753;SDS011;8999;48.994;9.150;2023-03-01T15:34:35;27.13;;;15.98;;
17753;SDS011;8999;48.994;9.150;2023-03-01T15:37:34;23.77;;;14.98;;
17753;SDS011;8999;48.994;9.150;2023-03-01T15:40:19;23.50;;;14.40;;